地図

経路データ

SID SEASON NUMBER BASIN SUBBASIN NAME ISO_TIME NATURE LAT LON WMO_WIND WMO_PRES WMO_AGENCY TRACK_TYPE DIST2LAND LANDFALL IFLAG USA_AGENCY USA_ATCF_ID USA_LAT USA_LON USA_RECORD USA_STATUS USA_WIND USA_PRES USA_SSHS USA_R34_NE USA_R34_SE USA_R34_SW USA_R34_NW USA_R50_NE USA_R50_SE USA_R50_SW USA_R50_NW USA_R64_NE USA_R64_SE USA_R64_SW USA_R64_NW USA_POCI USA_ROCI USA_RMW USA_EYE TOKYO_LAT TOKYO_LON TOKYO_GRADE TOKYO_WIND TOKYO_PRES TOKYO_R50_DIR TOKYO_R50_LONG TOKYO_R50_SHORT TOKYO_R30_DIR TOKYO_R30_LONG TOKYO_R30_SHORT TOKYO_LAND CMA_LAT CMA_LON CMA_CAT CMA_WIND CMA_PRES HKO_LAT HKO_LON HKO_CAT HKO_WIND HKO_PRES NEWDELHI_LAT NEWDELHI_LON NEWDELHI_GRADE NEWDELHI_WIND NEWDELHI_PRES NEWDELHI_CI NEWDELHI_DP NEWDELHI_POCI REUNION_LAT REUNION_LON REUNION_TYPE REUNION_WIND REUNION_PRES REUNION_TNUM REUNION_CI REUNION_RMW REUNION_R34_NE REUNION_R34_SE REUNION_R34_SW REUNION_R34_NW REUNION_R50_NE REUNION_R50_SE REUNION_R50_SW REUNION_R50_NW REUNION_R64_NE REUNION_R64_SE REUNION_R64_SW REUNION_R64_NW BOM_LAT BOM_LON BOM_TYPE BOM_WIND BOM_PRES BOM_TNUM BOM_CI BOM_RMW BOM_R34_NE BOM_R34_SE BOM_R34_SW BOM_R34_NW BOM_R50_NE BOM_R50_SE BOM_R50_SW BOM_R50_NW BOM_R64_NE BOM_R64_SE BOM_R64_SW BOM_R64_NW BOM_ROCI BOM_POCI BOM_EYE BOM_POS_METHOD BOM_PRES_METHOD NADI_LAT NADI_LON NADI_CAT NADI_WIND NADI_PRES WELLINGTON_LAT WELLINGTON_LON WELLINGTON_WIND WELLINGTON_PRES DS824_LAT DS824_LON DS824_STAGE DS824_WIND DS824_PRES TD9636_LAT TD9636_LON TD9636_STAGE TD9636_WIND TD9636_PRES TD9635_LAT TD9635_LON TD9635_WIND TD9635_PRES TD9635_ROCI NEUMANN_LAT NEUMANN_LON NEUMANN_CLASS NEUMANN_WIND NEUMANN_PRES MLC_LAT MLC_LON MLC_CLASS MLC_WIND MLC_PRES USA_GUST BOM_GUST BOM_GUST_PER REUNION_GUST REUNION_GUST_PER USA_SEAHGT USA_SEARAD_NE USA_SEARAD_SE USA_SEARAD_SW USA_SEARAD_NW STORM_SPEED STORM_DIR
1980318N13280 1980 98 NA CS NOT_NAMED 1980-11-12 12:00:00 TS 13.0000 -80.0000 20 hurdat_atl main 375 326 O_____________ hurdat_atl AL171980 13.0000 -80.0000 TD 20 -1 8 296
1980318N13280 1980 98 NA CS NOT_NAMED 1980-11-12 15:00:00 TS 13.1752 -80.3749 main 326 288 P_____________ AL171980 13.1752 -80.3749 TD 20 -1 8 300
1980318N13280 1980 98 NA CS NOT_NAMED 1980-11-12 18:00:00 TS 13.4000 -80.7000 20 hurdat_atl main 288 257 O_____________ hurdat_atl AL171980 13.4000 -80.7000 TD 20 -1 8 313
1980318N13280 1980 98 NA CS NOT_NAMED 1980-11-12 21:00:00 TS 13.6999 -80.9501 main 246 218 P_____________ AL171980 13.6999 -80.9501 TD 22 -1 8 321
1980318N13280 1980 98 NA CS NOT_NAMED 1980-11-13 00:00:00 TS 14.0000 -81.2000 25 hurdat_atl main 218 183 O_____________ hurdat_atl AL171980 14.0000 -81.2000 TD 25 -1 8 311
1980318N13280 1980 98 NA CS NOT_NAMED 1980-11-13 03:00:00 TS 14.2001 -81.5501 main 172 140 P_____________ AL171980 14.2001 -81.5501 TD 25 -1 8 301
1980318N13280 1980 98 NA CS NOT_NAMED 1980-11-13 06:00:00 TS 14.4000 -81.9000 25 hurdat_atl main 140 116 O_____________ hurdat_atl AL171980 14.4000 -81.9000 TD 25 -1 8 308
1980318N13280 1980 98 NA CS NOT_NAMED 1980-11-13 09:00:00 TS 14.6624 -82.1577 main 102 75 P_____________ AL171980 14.6624 -82.1577 TD 27 -1 8 321
1980318N13280 1980 98 NA CS NOT_NAMED 1980-11-13 12:00:00 TS 15.0000 -82.4000 30 hurdat_atl main 75 58 O_____________ hurdat_atl AL171980 15.0000 -82.4000 TD 30 -1 10 327
1980318N13280 1980 98 NA CS NOT_NAMED 1980-11-13 15:00:00 TS 15.4575 -82.6998 main 70 64 P_____________ AL171980 15.4575 -82.6998 TD 30 -1 11 327
1980318N13280 1980 98 NA CS NOT_NAMED 1980-11-13 18:00:00 TS 15.9000 -83.0000 30 hurdat_atl main 79 79 O_____________ hurdat_atl AL171980 15.9000 -83.0000 TD 30 -1 9 322
1980318N13280 1980 98 NA CS NOT_NAMED 1980-11-13 21:00:00 TS 16.1650 -83.2727 main 99 92 P_____________ AL171980 16.1650 -83.2727 TD 30 -1 7 316
1980318N13280 1980 98 NA CS NOT_NAMED 1980-11-14 00:00:00 TS 16.4000 -83.5000 30 hurdat_atl main 104 104 O_____________ hurdat_atl AL171980 16.4000 -83.5000 TD 30 -1 7 325
1980318N13280 1980 98 NA CS NOT_NAMED 1980-11-14 03:00:00 TS 16.7200 -83.6800 main 119 119 P_____________ AL171980 16.7200 -83.6800 TD 30 -1 8 338
1980318N13280 1980 98 NA CS NOT_NAMED 1980-11-14 06:00:00 TS 17.1000 -83.8000 30 hurdat_atl main 154 154 O_____________ hurdat_atl AL171980 17.1000 -83.8000 TD 30 -1 9 347
1980318N13280 1980 98 NA CS NOT_NAMED 1980-11-14 09:00:00 TS 17.5425 -83.8800 main 194 194 P_____________ AL171980 17.5425 -83.8800 TD 30 -1 9 354
1980318N13280 1980 98 NA CS NOT_NAMED 1980-11-14 12:00:00 TS 18.0000 -83.9000 30 hurdat_atl main 249 249 O_____________ hurdat_atl AL171980 18.0000 -83.9000 TD 30 -1 9 1
1980318N13280 1980 98 NA CS NOT_NAMED 1980-11-14 15:00:00 TS 18.4225 -83.8726 main 292 292 P_____________ AL171980 18.4225 -83.8726 TD 30 -1 8 7
1980318N13280 1980 98 NA CS NOT_NAMED 1980-11-14 18:00:00 TS 18.8000 -83.8000 30 hurdat_atl main 308 273 O_____________ hurdat_atl AL171980 18.8000 -83.8000 TD 30 -1 7 12
1980318N13280 1980 98 NA CS NOT_NAMED 1980-11-14 21:00:00 TS 19.1150 -83.7149 main 273 238 P_____________ AL171980 19.1150 -83.7149 TD 30 -1 6 18
1980318N13280 1980 98 NA CS NOT_NAMED 1980-11-15 00:00:00 TS 19.4000 -83.6000 30 hurdat_atl main 238 203 O_____________ hurdat_atl AL171980 19.4000 -83.6000 TD 30 -1 6 23
1980318N13280 1980 98 NA CS NOT_NAMED 1980-11-15 03:00:00 TS 19.6925 -83.4575 main 203 164 P_____________ AL171980 19.6925 -83.4575 TD 30 -1 7 25
1980318N13280 1980 98 NA CS NOT_NAMED 1980-11-15 06:00:00 TS 20.0000 -83.3000 30 hurdat_atl main 164 126 O_____________ hurdat_atl AL171980 20.0000 -83.3000 TD 30 -1 7 24
1980318N13280 1980 98 NA CS NOT_NAMED 1980-11-15 09:00:00 TS 20.3650 -83.1351 main 116 80 P_____________ AL171980 20.3650 -83.1351 TD 30 -1 8 22
1980318N13280 1980 98 NA CS NOT_NAMED 1980-11-15 12:00:00 TS 20.7000 -83.0000 30 hurdat_atl main 80 56 O_____________ hurdat_atl AL171980 20.7000 -83.0000 TD 30 -1 6 19
1980318N13280 1980 98 NA CS NOT_NAMED 1980-11-15 15:00:00 TS 20.9075 -82.9349 main 56 35 P_____________ AL171980 20.9075 -82.9349 TD 30 -1 4 13
1980318N13280 1980 98 NA CS NOT_NAMED 1980-11-15 18:00:00 TS 21.1000 -82.9000 30 hurdat_atl main 35 10 O_____________ hurdat_atl AL171980 21.1000 -82.9000 TD 30 -1 5 9
1980318N13280 1980 98 NA CS NOT_NAMED 1980-11-15 21:00:00 TS 21.3925 -82.8500 main 10 0 P_____________ AL171980 21.3925 -82.8500 TD 27 -1 6 9
1980318N13280 1980 98 NA CS NOT_NAMED 1980-11-16 00:00:00 TS 21.7000 -82.8000 25 hurdat_atl main 0 0 O_____________ hurdat_atl AL171980 21.7000 -82.8000 TD 25 -1 6 11
1980318N13280 1980 98 NA CS NOT_NAMED 1980-11-16 03:00:00 TS 21.9425 -82.7351 main 11 11 P_____________ AL171980 21.9425 -82.7351 TD 25 -1 5 10
1980318N13280 1980 98 NA CS NOT_NAMED 1980-11-16 06:00:00 TS 22.2000 -82.7000 25 hurdat_atl main 44 22 O_____________ hurdat_atl AL171980 22.2000 -82.7000 TD 25 -1 6 3
1980318N13280 1980 98 NA CS NOT_NAMED 1980-11-16 09:00:00 TS 22.5125 -82.7349 main 22 0 P_____________ AL171980 22.5125 -82.7349 TD 25 -1 7 353
1980318N13280 1980 98 NA NA NOT_NAMED 1980-11-16 12:00:00 TS 22.9000 -82.8000 25 hurdat_atl main 0 0 O_____________ hurdat_atl AL171980 22.9000 -82.8000 TD 25 -1 9 354
1980318N13280 1980 98 NA NA NOT_NAMED 1980-11-16 15:00:00 TS 23.4150 -82.8500 main 44 44 P_____________ AL171980 23.4150 -82.8500 TD 27 -1 10 355
1980318N13280 1980 98 NA NA NOT_NAMED 1980-11-16 18:00:00 TS 23.9000 -82.9000 30 hurdat_atl main 98 98 O_____________ hurdat_atl AL171980 23.9000 -82.9000 TD 30 -1 8 353
1980318N13280 1980 98 NA NA NOT_NAMED 1980-11-16 21:00:00 TS 24.1650 -82.9426 main 129 129 P_____________ AL171980 24.1650 -82.9426 TD 30 -1 5 350
1980318N13280 1980 98 NA GM NOT_NAMED 1980-11-17 00:00:00 TS 24.4000 -83.0000 30 hurdat_atl main 153 153 O_____________ hurdat_atl AL171980 24.4000 -83.0000 TD 30 -1 6 348
1980318N13280 1980 98 NA GM NOT_NAMED 1980-11-17 03:00:00 TS 24.7775 -83.0850 main 186 169 P_____________ AL171980 24.7775 -83.0850 TD 30 -1 8 347
1980318N13280 1980 98 NA GM NOT_NAMED 1980-11-17 06:00:00 TS 25.2000 -83.2000 30 hurdat_atl main 169 164 O_____________ hurdat_atl AL171980 25.2000 -83.2000 TD 30 -1 8 341
1980318N13280 1980 98 NA GM NOT_NAMED 1980-11-17 09:00:00 TS 25.5700 -83.3870 main 169 149 P_____________ AL171980 25.5700 -83.3870 TD 30 -1 8 341
1980318N13280 1980 98 NA GM NOT_NAMED 1980-11-17 12:00:00 TS 26.0000 -83.5000 30 hurdat_atl main 149 111 O_____________ hurdat_atl AL171980 26.0000 -83.5000 TD 30 -1 10 359
1980318N13280 1980 98 NA GM NOT_NAMED 1980-11-17 15:00:00 TS 26.6001 -83.3882 main 111 60 P_____________ AL171980 26.6001 -83.3882 TD 27 -1 12 13
1980318N13280 1980 98 NA GM NOT_NAMED 1980-11-17 18:00:00 TS 27.2000 -83.2000 25 hurdat_atl main 60 44 O_____________ hurdat_atl AL171980 27.2000 -83.2000 TD 25 -1 10 12
1980318N13280 1980 98 NA GM NOT_NAMED 1980-11-17 21:00:00 TS 27.6147 -83.1514 main 44 9 P_____________ AL171980 27.6147 -83.1514 TD 25 -1 8 13
1980318N13280 1980 98 NA GM NOT_NAMED 1980-11-18 00:00:00 TS 28.0000 -83.0000 25 hurdat_atl main 14 0 O_____________ hurdat_atl AL171980 28.0000 -83.0000 TD 25 -1 10 31
1980318N13280 1980 98 NA NA NOT_NAMED 1980-11-18 03:00:00 TS 28.4853 -82.5604 main 0 0 P_____________ AL171980 28.4853 -82.5604 TD 22 -1 13 41
1980318N13280 1980 98 NA NA NOT_NAMED 1980-11-18 06:00:00 TS 29.0000 -82.0000 20 hurdat_atl main 0 0 O_____________ hurdat_atl AL171980 29.0000 -82.0000 TD 20 -1 14 43
1980318N13280 1980 98 NA NA NOT_NAMED 1980-11-18 09:00:00 TS 29.5050 -81.4805 main 0 0 P_____________ AL171980 29.5050 -81.4805 TD 20 -1 13 41
1980318N13280 1980 98 NA NA NOT_NAMED 1980-11-18 12:00:00 TS 30.0000 -81.0000 20 hurdat_atl main 36 O_____________ hurdat_atl AL171980 30.0000 -81.0000 TD 20 -1 13 40

IBTrACS Databaseについて

本データベースは、米国NOAAが公開する1842年以降の世界の熱帯低気圧のベストトラックデータアーカイブInternational Best Track Archive for Climate Stewardship (IBTrACS)を、ウェブで閲覧しやすい形式に変換したものです。

最終更新日:2021-12-01